createdAt,value
2023-04-28T00:00:19.242Z,85.32
2023-04-28T00:02:52.280Z,85.23
2023-04-28T00:05:06.317Z,85.51
2023-04-28T00:07:18.933Z,85.65
2023-04-28T00:09:31.544Z,85.89
2023-04-28T00:11:47.254Z,86.00
2023-04-28T00:13:59.801Z,86.03
2023-04-28T00:16:12.349Z,86.07
2023-04-28T00:18:25.000Z,86.33
2023-04-28T00:20:37.550Z,86.35
2023-04-28T00:22:50.557Z,86.66
2023-04-28T00:25:03.846Z,87.07
2023-04-28T00:27:16.420Z,87.23
2023-04-28T00:29:29.511Z,87.11
2023-04-28T00:31:42.165Z,87.21
2023-04-28T00:33:54.745Z,87.23
2023-04-28T00:36:09.289Z,87.32
2023-04-28T00:38:22.388Z,87.28
2023-04-28T00:40:39.323Z,87.47
2023-04-28T00:42:51.877Z,87.39
2023-04-28T00:45:07.290Z,87.56
2023-04-28T00:47:20.016Z,87.72
2023-04-28T00:49:34.159Z,87.92
2023-04-28T00:51:46.713Z,88.16
2023-04-28T00:53:59.694Z,88.07
2023-04-28T00:56:12.802Z,88.22
2023-04-28T00:58:25.663Z,88.14
2023-04-28T01:00:38.200Z,88.27
2023-04-28T01:02:55.272Z,88.38
2023-04-28T01:05:09.751Z,88.18
2023-04-28T01:07:22.678Z,88.21
2023-04-28T01:09:35.405Z,88.34
2023-04-28T01:11:48.026Z,88.35
2023-04-28T01:14:00.662Z,88.65
2023-04-28T01:16:13.291Z,88.66
2023-04-28T01:18:25.999Z,88.60
2023-04-28T01:20:38.855Z,88.51
2023-04-28T01:22:51.387Z,88.39
2023-04-28T01:25:04.181Z,88.61
2023-04-28T01:27:17.067Z,88.89
2023-04-28T01:29:29.692Z,88.97
2023-04-28T01:31:42.509Z,89.15
2023-04-28T01:33:55.048Z,89.05
2023-04-28T01:36:07.947Z,89.13
2023-04-28T01:38:20.570Z,89.12
2023-04-28T01:40:33.189Z,89.25
2023-04-28T01:42:45.915Z,89.37
2023-04-28T01:44:58.426Z,89.32
2023-04-28T01:47:11.070Z,89.24
2023-04-28T01:49:24.079Z,89.14
2023-04-28T01:51:36.619Z,89.14
2023-04-28T01:53:49.170Z,89.00
2023-04-28T01:56:02.497Z,88.95
2023-04-28T01:58:15.079Z,89.04
2023-04-28T02:00:27.720Z,89.24
2023-04-28T02:02:40.919Z,89.15
2023-04-28T02:04:53.666Z,88.91
2023-04-28T02:07:07.066Z,88.90
2023-04-28T02:09:19.646Z,88.80
2023-04-28T02:11:32.426Z,88.73
2023-04-28T02:13:44.971Z,88.47
2023-04-28T02:16:01.400Z,88.27
2023-04-28T02:18:14.000Z,88.28
2023-04-28T02:20:27.105Z,88.40
2023-04-28T02:22:39.962Z,88.40
2023-04-28T02:24:52.695Z,88.38
2023-04-28T02:27:05.679Z,88.15
2023-04-28T02:29:18.266Z,88.29
2023-04-28T02:31:30.835Z,88.53
2023-04-28T02:33:43.590Z,88.32
2023-04-28T02:36:00.503Z,88.25
2023-04-28T02:38:13.068Z,88.29
2023-04-28T02:40:25.725Z,88.54
2023-04-28T02:42:38.208Z,88.53
2023-04-28T02:44:50.803Z,88.48
2023-04-28T02:47:03.540Z,88.62
2023-04-28T02:49:16.247Z,88.64
2023-04-28T02:51:28.808Z,88.71
2023-04-28T02:53:41.336Z,88.90
2023-04-28T02:55:54.304Z,88.69
2023-04-28T02:58:09.012Z,88.64
2023-04-28T03:00:21.570Z,88.78
2023-04-28T03:02:34.247Z,88.95
2023-04-28T03:04:46.948Z,88.72
2023-04-28T03:06:59.532Z,88.74
2023-04-28T03:09:12.761Z,88.52
2023-04-28T03:11:25.617Z,88.54
2023-04-28T03:13:38.158Z,88.56
2023-04-28T03:15:50.881Z,88.30
2023-04-28T03:18:03.682Z,88.41
2023-04-28T03:20:16.273Z,88.56
2023-04-28T03:22:28.835Z,88.25
2023-04-28T03:24:41.394Z,88.30
2023-04-28T03:26:53.952Z,88.07
2023-04-28T03:29:06.886Z,88.02
2023-04-28T03:31:19.396Z,88.21
2023-04-28T03:33:31.955Z,88.06
2023-04-28T03:35:44.497Z,88.04
2023-04-28T03:37:57.095Z,87.97
2023-04-28T03:40:10.472Z,88.20
2023-04-28T03:42:23.061Z,88.14
2023-04-28T03:44:36.163Z,88.12
2023-04-28T03:46:49.065Z,88.00
2023-04-28T03:49:02.319Z,88.23
2023-04-28T03:51:14.900Z,88.00
2023-04-28T03:53:27.896Z,88.02
2023-04-28T03:55:40.724Z,88.17
2023-04-28T03:57:53.324Z,88.12
2023-04-28T04:00:06.505Z,88.05
2023-04-28T04:02:19.111Z,88.08
2023-04-28T04:04:32.076Z,88.41
2023-04-28T04:06:44.867Z,88.41
2023-04-28T04:08:57.434Z,88.41
2023-04-28T04:11:10.094Z,88.46
2023-04-28T04:13:22.994Z,88.50
2023-04-28T04:15:35.781Z,88.54
2023-04-28T04:17:48.532Z,88.68
2023-04-28T04:20:02.431Z,88.66
2023-04-28T04:22:15.042Z,88.78
2023-04-28T04:24:27.587Z,88.79
2023-04-28T04:26:40.349Z,88.57
2023-04-28T04:28:53.433Z,88.16
2023-04-28T04:31:06.353Z,87.73
2023-04-28T04:33:18.912Z,87.38
2023-04-28T04:35:31.827Z,87.30
2023-04-28T04:37:44.633Z,87.54
2023-04-28T04:39:57.209Z,87.54
2023-04-28T04:42:23.261Z,87.74
2023-04-28T04:44:37.691Z,87.78
2023-04-28T04:46:50.283Z,88.02
2023-04-28T04:49:02.922Z,88.07
2023-04-28T04:51:15.458Z,87.83
2023-04-28T04:53:27.998Z,87.85
2023-04-28T04:55:40.688Z,87.50
2023-04-28T04:57:53.233Z,87.19
2023-04-28T05:00:06.211Z,87.10
2023-04-28T05:02:18.872Z,87.13
2023-04-28T05:04:31.688Z,86.88
2023-04-28T05:06:44.470Z,86.59
2023-04-28T05:08:58.295Z,86.63
2023-04-28T05:11:10.870Z,86.36
2023-04-28T05:13:23.400Z,85.55
2023-04-28T05:15:36.107Z,84.06
2023-04-28T05:17:48.749Z,83.24
2023-04-28T05:20:01.294Z,82.84
2023-04-28T05:22:14.045Z,82.23
2023-04-28T05:24:26.806Z,81.58
2023-04-28T05:26:39.298Z,81.00
2023-04-28T05:28:52.478Z,80.47
2023-04-28T05:31:04.994Z,79.93
2023-04-28T05:33:17.549Z,79.12
2023-04-28T05:35:31.576Z,78.81
2023-04-28T05:37:45.102Z,78.12
2023-04-28T05:39:57.686Z,77.38
2023-04-28T05:42:10.293Z,76.96
2023-04-28T05:44:22.796Z,77.08
2023-04-28T05:46:36.913Z,76.81
2023-04-28T05:48:49.427Z,76.99
2023-04-28T05:51:01.960Z,76.08
2023-04-28T05:53:14.497Z,75.07
2023-04-28T05:55:27.436Z,74.94
2023-04-28T05:57:51.827Z,74.11
2023-04-28T06:00:07.058Z,73.49
2023-04-28T06:02:21.944Z,73.30
2023-04-28T06:04:35.465Z,73.21
2023-04-28T06:06:48.269Z,72.37
2023-04-28T06:09:01.814Z,72.18
2023-04-28T06:11:14.329Z,71.96
2023-04-28T06:13:27.528Z,71.19
2023-04-28T06:15:40.099Z,70.28
2023-04-28T06:17:52.980Z,70.19
2023-04-28T06:20:07.579Z,69.43
2023-04-28T06:22:20.435Z,68.93
2023-04-28T06:24:33.509Z,68.41
2023-04-28T06:26:46.224Z,68.39
2023-04-28T06:28:58.817Z,67.67
2023-04-28T06:31:11.420Z,67.41
2023-04-28T06:33:23.936Z,67.38
2023-04-28T06:35:38.868Z,66.78
2023-04-28T06:37:51.355Z,66.35
2023-04-28T06:40:04.204Z,65.77
2023-04-28T06:42:18.880Z,65.16
2023-04-28T06:44:31.367Z,64.59
2023-04-28T06:46:43.984Z,63.59
2023-04-28T06:48:56.559Z,63.53
2023-04-28T06:51:09.135Z,62.12
2023-04-28T06:53:21.664Z,62.53
2023-04-28T06:55:34.985Z,61.54
2023-04-28T06:57:47.581Z,60.33
2023-04-28T07:00:00.169Z,59.61
2023-04-28T07:02:12.978Z,59.25
2023-04-28T07:04:26.015Z,58.44
2023-04-28T07:06:38.607Z,58.25
2023-04-28T07:08:53.761Z,57.67
2023-04-28T07:11:06.783Z,57.28
2023-04-28T07:13:19.389Z,56.20
2023-04-28T07:15:31.907Z,56.35
2023-04-28T07:17:44.652Z,56.11
2023-04-28T07:19:57.188Z,55.34
2023-04-28T07:22:09.740Z,54.93
2023-04-28T07:24:23.413Z,54.35
2023-04-28T07:26:36.220Z,53.56
2023-04-28T07:28:48.827Z,52.88
2023-04-28T07:31:01.506Z,52.39
2023-04-28T07:33:14.127Z,52.48
2023-04-28T07:35:27.027Z,52.06
2023-04-28T07:37:40.136Z,51.10
2023-04-28T07:39:52.769Z,50.46
2023-04-28T07:42:05.248Z,49.59
2023-04-28T07:44:18.249Z,49.65
2023-04-28T07:46:31.315Z,48.13
2023-04-28T07:48:44.130Z,47.35
2023-04-28T07:50:56.714Z,47.81
2023-04-28T07:53:09.270Z,47.27
2023-04-28T07:55:22.003Z,46.67
2023-04-28T07:57:36.910Z,46.22
2023-04-28T07:59:49.634Z,45.84
2023-04-28T08:02:03.288Z,45.38
2023-04-28T08:04:16.222Z,44.82
2023-04-28T08:06:29.266Z,43.62
2023-04-28T08:08:42.056Z,42.77
2023-04-28T08:10:55.022Z,41.76
2023-04-28T08:13:07.800Z,40.90
2023-04-28T08:15:20.454Z,39.58
2023-04-28T08:17:33.082Z,39.37
2023-04-28T08:19:46.347Z,38.59
2023-04-28T08:22:00.055Z,38.36
2023-04-28T08:24:12.660Z,38.53
2023-04-28T08:26:25.917Z,38.26
2023-04-28T08:28:39.230Z,37.94
2023-04-28T08:30:52.452Z,38.24
2023-04-28T08:33:06.788Z,37.03
2023-04-28T08:35:20.060Z,36.22
2023-04-28T08:37:32.974Z,37.12
2023-04-28T08:39:45.505Z,36.57
2023-04-28T08:41:58.218Z,35.88
2023-04-28T08:44:11.786Z,35.63
2023-04-28T08:46:27.878Z,35.63
2023-04-28T08:48:42.776Z,35.28
2023-04-28T08:50:55.916Z,35.16
2023-04-28T08:53:10.270Z,34.44
2023-04-28T08:55:24.778Z,33.73
2023-04-28T08:57:45.718Z,33.87
2023-04-28T08:59:58.647Z,34.12
2023-04-28T09:02:11.694Z,33.62
2023-04-28T09:04:24.670Z,33.07
2023-04-28T09:06:38.740Z,32.66
2023-04-28T09:08:51.440Z,32.75
2023-04-28T09:11:13.614Z,32.73
2023-04-28T09:13:26.403Z,32.69
2023-04-28T09:15:41.407Z,32.53
2023-04-28T09:17:54.072Z,31.96
2023-04-28T09:20:19.910Z,32.06
2023-04-28T09:22:33.097Z,32.29
2023-04-28T09:24:47.047Z,31.85
2023-04-28T09:27:00.804Z,31.89
2023-04-28T09:29:13.844Z,31.63
2023-04-28T09:31:29.124Z,31.49
2023-04-28T09:33:56.706Z,32.10
2023-04-28T09:36:09.296Z,32.31
2023-04-28T09:38:23.093Z,32.17
2023-04-28T09:40:57.885Z,31.72
2023-04-28T09:43:26.934Z,31.52
2023-04-28T09:45:42.556Z,31.30
2023-04-28T09:48:10.796Z,30.63
2023-04-28T09:50:23.434Z,30.81
2023-04-28T09:52:36.732Z,30.50
2023-04-28T09:54:54.427Z,30.32
2023-04-28T09:57:07.341Z,30.26
2023-04-28T09:59:21.497Z,30.04
2023-04-28T10:01:40.598Z,29.98
2023-04-28T10:03:54.271Z,30.12
2023-04-28T10:06:08.330Z,30.74
2023-04-28T10:08:22.546Z,30.03
2023-04-28T10:10:37.733Z,29.88
2023-04-28T10:12:51.421Z,29.37
2023-04-28T10:15:04.837Z,29.44
2023-04-28T10:17:17.735Z,29.57
2023-04-28T10:19:30.388Z,29.48
2023-04-28T10:21:54.993Z,28.52
2023-04-28T10:24:26.922Z,28.76
2023-04-28T10:27:06.584Z,28.45
2023-04-28T10:29:24.770Z,28.46
2023-04-28T10:31:37.344Z,27.79
2023-04-28T10:33:50.216Z,27.53
2023-04-28T10:36:04.198Z,27.91
2023-04-28T10:38:23.235Z,26.96
2023-04-28T10:40:39.913Z,27.22
2023-04-28T10:42:54.554Z,26.85
2023-04-28T10:45:07.741Z,26.50
2023-04-28T10:47:20.400Z,25.84
2023-04-28T10:49:54.672Z,25.93
2023-04-28T10:52:32.876Z,25.27
2023-04-28T10:55:24.185Z,25.44
2023-04-28T10:57:37.327Z,25.60
2023-04-28T10:59:51.711Z,25.12
2023-04-28T11:02:37.006Z,24.84
2023-04-28T11:05:18.820Z,25.17
2023-04-28T11:07:31.647Z,26.12
2023-04-28T11:09:44.550Z,24.99
2023-04-28T11:11:59.973Z,24.56
2023-04-28T11:14:18.389Z,24.79
2023-04-28T11:16:32.932Z,24.11
2023-04-28T11:18:57.477Z,23.82
2023-04-28T11:21:11.256Z,23.65
2023-04-28T11:23:28.575Z,23.29
2023-04-28T11:25:54.815Z,23.28
2023-04-28T11:28:08.564Z,23.15
2023-04-28T11:30:22.576Z,23.24
2023-04-28T11:32:36.642Z,24.02
2023-04-28T11:34:51.810Z,24.93
2023-04-28T11:37:05.916Z,24.05
2023-04-28T11:39:29.256Z,24.10
2023-04-28T11:41:43.749Z,24.42
2023-04-28T11:43:56.406Z,24.54
2023-04-28T11:46:09.086Z,24.33
2023-04-28T11:48:25.093Z,23.33
2023-04-28T11:50:38.370Z,23.28
2023-04-28T11:52:53.619Z,23.02
2023-04-28T11:55:07.293Z,22.78
2023-04-28T11:57:21.505Z,21.95
2023-04-28T11:59:35.693Z,21.91
2023-04-28T12:01:51.996Z,21.90
2023-04-28T12:04:05.000Z,22.34
2023-04-28T12:06:21.837Z,22.83
2023-04-28T12:08:34.444Z,23.30
2023-04-28T12:11:08.333Z,23.70
2023-04-28T12:13:20.866Z,23.82
2023-04-28T12:15:42.733Z,24.00
2023-04-28T12:17:55.482Z,24.32
2023-04-28T12:20:10.204Z,24.23
2023-04-28T12:22:23.983Z,23.69
2023-04-28T12:24:36.842Z,23.95
2023-04-28T12:26:49.542Z,24.20
2023-04-28T12:29:02.063Z,24.20
2023-04-28T12:31:14.912Z,24.33
2023-04-28T12:33:29.002Z,24.85
2023-04-28T12:35:42.112Z,25.03
2023-04-28T12:37:56.557Z,24.81
2023-04-28T12:40:10.468Z,24.10
2023-04-28T12:42:23.551Z,23.63
2023-04-28T12:44:37.462Z,23.74
2023-04-28T12:46:51.694Z,24.12
2023-04-28T12:49:04.278Z,24.20
2023-04-28T12:51:16.820Z,23.89
2023-04-28T12:53:29.370Z,23.25
2023-04-28T12:55:42.247Z,23.06
2023-04-28T12:57:55.256Z,23.11
2023-04-28T13:00:08.835Z,22.77
2023-04-28T13:02:21.986Z,22.79
2023-04-28T13:04:34.896Z,22.74
2023-04-28T13:06:48.304Z,22.31
2023-04-28T13:09:01.015Z,22.01
2023-04-28T13:13:32.454Z,21.79
2023-04-28T13:15:46.525Z,22.06
2023-04-28T13:17:59.866Z,21.62
2023-04-28T13:20:12.595Z,21.83
2023-04-28T13:22:25.153Z,21.87
2023-04-28T13:24:37.690Z,21.51
2023-04-28T13:26:51.767Z,21.35
2023-04-28T13:29:04.572Z,21.39
2023-04-28T13:31:17.258Z,20.93
2023-04-28T13:33:31.324Z,21.10
2023-04-28T13:35:44.359Z,20.92
2023-04-28T13:38:01.801Z,20.49
2023-04-28T13:40:14.516Z,20.85
2023-04-28T13:42:27.616Z,21.00
2023-04-28T13:44:40.122Z,21.05
2023-04-28T13:46:52.942Z,21.17
2023-04-28T13:49:05.548Z,21.44
2023-04-28T13:51:18.161Z,21.48
2023-04-28T13:53:31.512Z,21.72
2023-04-28T13:55:44.275Z,21.65
2023-04-28T13:57:57.313Z,21.88
2023-04-28T14:00:10.554Z,22.24
2023-04-28T14:02:23.317Z,22.56
2023-04-28T14:04:36.310Z,23.01
2023-04-28T14:06:50.451Z,23.34
2023-04-28T14:09:03.548Z,23.60
2023-04-28T14:11:16.153Z,23.62
2023-04-28T14:13:29.681Z,24.15
2023-04-28T14:15:51.177Z,24.61
2023-04-28T14:18:11.027Z,24.38
2023-04-28T14:20:23.617Z,24.45
2023-04-28T14:22:36.236Z,24.17
2023-04-28T14:24:49.021Z,24.22
2023-04-28T14:27:01.915Z,24.57
2023-04-28T14:29:15.005Z,24.61
2023-04-28T14:31:28.385Z,24.64
2023-04-28T14:33:41.269Z,24.76
2023-04-28T14:35:53.844Z,24.91
2023-04-28T14:38:06.390Z,25.32
2023-04-28T14:40:18.955Z,25.53
2023-04-28T14:42:36.176Z,25.71
2023-04-28T14:44:48.988Z,25.79
2023-04-28T14:47:02.962Z,26.21
2023-04-28T14:49:15.602Z,26.29
2023-04-28T14:51:28.691Z,26.66
2023-04-28T14:53:42.009Z,26.87
2023-04-28T14:55:59.556Z,27.34
2023-04-28T14:58:19.994Z,27.40
2023-04-28T15:00:32.669Z,27.36
2023-04-28T15:02:45.287Z,27.70
2023-04-28T15:04:58.418Z,27.81
2023-04-28T15:07:11.141Z,27.88
2023-04-28T15:09:23.712Z,27.98
2023-04-28T15:11:36.470Z,28.08
2023-04-28T15:13:49.002Z,28.31
2023-04-28T15:16:03.066Z,28.51
2023-04-28T15:18:15.641Z,28.77
2023-04-28T15:20:30.364Z,29.43
2023-04-28T15:22:44.508Z,29.57
2023-04-28T15:24:57.118Z,29.93
2023-04-28T15:27:09.656Z,30.30
2023-04-28T15:29:22.589Z,30.37
2023-04-28T15:31:35.167Z,30.76
2023-04-28T15:33:47.868Z,30.74
2023-04-28T15:36:00.524Z,30.86
2023-04-28T15:38:13.288Z,31.00
2023-04-28T15:40:25.884Z,31.28
2023-04-28T15:42:39.231Z,31.37
2023-04-28T15:44:53.865Z,31.55
2023-04-28T15:47:06.551Z,31.42
2023-04-28T15:49:19.293Z,31.58
2023-04-28T15:51:31.856Z,31.72
2023-04-28T15:53:44.413Z,31.98
2023-04-28T15:55:58.325Z,32.14
2023-04-28T15:58:11.002Z,31.92
2023-04-28T16:00:23.634Z,31.56
2023-04-28T16:02:37.883Z,31.40
2023-04-28T16:04:51.047Z,31.48
2023-04-28T16:07:04.313Z,31.70
2023-04-28T16:09:16.885Z,31.65
2023-04-28T16:11:30.684Z,31.67
2023-04-28T16:13:44.684Z,31.71
2023-04-28T16:15:57.457Z,31.97
2023-04-28T16:18:10.441Z,32.00
2023-04-28T16:20:23.032Z,32.11
2023-04-28T16:22:36.630Z,32.13
2023-04-28T16:24:49.330Z,32.34
2023-04-28T16:27:02.067Z,32.55
2023-04-28T16:29:14.799Z,32.71
2023-04-28T16:31:27.502Z,33.01
2023-04-28T16:33:40.223Z,33.37
2023-04-28T16:35:57.901Z,33.71
2023-04-28T16:38:11.801Z,33.81
2023-04-28T16:40:25.063Z,34.00
2023-04-28T16:42:37.931Z,34.18
2023-04-28T16:44:52.649Z,34.63
2023-04-28T16:47:07.451Z,34.81
2023-04-28T16:49:20.156Z,34.88
2023-04-28T16:51:33.225Z,35.15
2023-04-28T16:53:45.810Z,35.35
2023-04-28T16:55:58.306Z,35.47
2023-04-28T16:58:10.944Z,35.66
2023-04-28T17:00:23.672Z,35.71
2023-04-28T17:02:36.373Z,35.78
2023-04-28T17:04:50.735Z,35.69
2023-04-28T17:07:04.643Z,35.78
2023-04-28T17:09:18.124Z,35.95
2023-04-28T17:11:30.658Z,36.12
2023-04-28T17:13:43.189Z,36.36
2023-04-28T17:15:57.450Z,36.35
2023-04-28T17:18:09.992Z,36.78
2023-04-28T17:20:23.014Z,36.91
2023-04-28T17:22:35.633Z,37.06
2023-04-28T17:24:48.312Z,37.16
2023-04-28T17:27:01.116Z,37.26
2023-04-28T17:29:13.625Z,37.50
2023-04-28T17:31:27.108Z,37.62
2023-04-28T17:33:39.746Z,37.81
2023-04-28T17:35:52.304Z,38.09
2023-04-28T17:38:06.410Z,38.08
2023-04-28T17:40:23.922Z,38.18
2023-04-28T17:42:36.672Z,38.37
2023-04-28T17:44:49.314Z,38.39
2023-04-28T17:47:02.357Z,38.46
2023-04-28T17:49:14.977Z,38.72
2023-04-28T17:51:27.951Z,38.93
2023-04-28T17:53:42.213Z,39.11
2023-04-28T17:55:54.749Z,39.32
2023-04-28T17:58:07.834Z,39.36
2023-04-28T18:00:20.918Z,39.58
2023-04-28T18:02:33.550Z,39.92
2023-04-28T18:04:46.879Z,40.24
2023-04-28T18:06:59.435Z,40.15
2023-04-28T18:09:12.012Z,40.55
2023-04-28T18:11:24.624Z,40.76
2023-04-28T18:13:37.225Z,40.95
2023-04-28T18:15:50.071Z,41.00
2023-04-28T18:18:02.699Z,41.28
2023-04-28T18:20:15.363Z,41.54
2023-04-28T18:22:28.001Z,41.76
2023-04-28T18:24:40.857Z,42.03
2023-04-28T18:26:53.415Z,42.17
2023-04-28T18:29:06.159Z,42.51
2023-04-28T18:31:18.798Z,42.67
2023-04-28T18:33:31.649Z,42.81
2023-04-28T18:35:44.731Z,43.05
2023-04-28T18:37:57.705Z,43.23
2023-04-28T18:40:10.542Z,43.45
2023-04-28T18:42:24.230Z,43.56
2023-04-28T18:44:36.884Z,43.78
2023-04-28T18:46:49.499Z,44.01
2023-04-28T18:49:03.119Z,44.15
2023-04-28T18:51:15.628Z,44.40
2023-04-28T18:53:28.488Z,44.67
2023-04-28T18:55:41.090Z,45.00
2023-04-28T18:57:53.630Z,45.24
2023-04-28T19:00:07.157Z,45.55
2023-04-28T19:02:19.755Z,45.66
2023-04-28T19:04:32.485Z,45.69
2023-04-28T19:06:45.611Z,46.03
2023-04-28T19:08:58.384Z,46.21
2023-04-28T19:11:11.236Z,46.12
2023-04-28T19:13:24.395Z,46.01
2023-04-28T19:15:37.198Z,46.18
2023-04-28T19:17:50.188Z,46.25
2023-04-28T19:20:03.977Z,46.48
2023-04-28T19:22:35.050Z,46.54
2023-04-28T19:24:47.697Z,46.53
2023-04-28T19:27:01.609Z,46.71
2023-04-28T19:29:17.051Z,47.06
2023-04-28T19:31:29.798Z,47.07
2023-04-28T19:33:42.516Z,47.46
2023-04-28T19:35:55.388Z,47.37
2023-04-28T19:38:09.538Z,47.47
2023-04-28T19:40:22.316Z,47.74
2023-04-28T19:42:35.265Z,47.71
2023-04-28T19:44:48.777Z,47.99
2023-04-28T19:47:05.181Z,48.10
2023-04-28T19:49:17.929Z,48.41
2023-04-28T19:51:30.615Z,48.34
2023-04-28T19:53:46.341Z,48.46
2023-04-28T19:56:01.731Z,48.78
2023-04-28T19:58:16.115Z,48.72
2023-04-28T20:00:30.450Z,48.91
2023-04-28T20:02:44.949Z,49.10
2023-04-28T20:04:57.655Z,49.08
2023-04-28T20:07:10.862Z,49.13
2023-04-28T20:09:23.669Z,49.19
2023-04-28T20:11:36.411Z,49.63
2023-04-28T20:13:49.325Z,49.70
2023-04-28T20:16:02.279Z,49.89
2023-04-28T20:18:14.971Z,50.04
2023-04-28T20:20:28.003Z,50.38
2023-04-28T20:22:43.998Z,50.78
2023-04-28T20:25:00.342Z,50.76
2023-04-28T20:27:13.486Z,51.00
2023-04-28T20:29:27.053Z,51.19
2023-04-28T20:31:39.856Z,51.36
2023-04-28T20:33:52.577Z,51.15
2023-04-28T20:36:05.540Z,51.90
2023-04-28T20:38:19.729Z,51.88
2023-04-28T20:40:32.436Z,51.78
2023-04-28T20:42:45.032Z,52.12
2023-04-28T20:44:58.215Z,52.19
2023-04-28T20:47:11.149Z,52.42
2023-04-28T20:49:24.451Z,52.54
2023-04-28T20:51:43.028Z,52.63
2023-04-28T20:53:57.562Z,52.77
2023-04-28T20:56:10.158Z,53.04
2023-04-28T20:58:22.788Z,53.17
2023-04-28T21:00:39.922Z,53.32
2023-04-28T21:02:52.699Z,53.63
2023-04-28T21:05:05.709Z,53.64
2023-04-28T21:07:18.675Z,53.89
2023-04-28T21:09:31.285Z,54.06
2023-04-28T21:11:43.812Z,54.32
2023-04-28T21:13:57.344Z,54.72
2023-04-28T21:16:20.573Z,54.64
2023-04-28T21:18:33.938Z,54.76
2023-04-28T21:20:47.018Z,54.89
2023-04-28T21:22:59.612Z,55.11
2023-04-28T21:25:12.461Z,55.56
2023-04-28T21:27:25.574Z,55.53
2023-04-28T21:29:38.111Z,56.00
2023-04-28T21:31:51.050Z,56.05
2023-04-28T21:34:03.713Z,56.43
2023-04-28T21:36:16.343Z,56.26
2023-04-28T21:38:28.897Z,56.49
2023-04-28T21:40:41.452Z,56.89
2023-04-28T21:42:54.015Z,57.15
2023-04-28T21:45:09.343Z,57.51
2023-04-28T21:47:21.895Z,57.44
2023-04-28T21:49:34.429Z,57.99
2023-04-28T21:51:46.994Z,58.40
2023-04-28T21:53:59.578Z,58.75
2023-04-28T21:56:12.157Z,58.99
2023-04-28T21:58:24.791Z,59.72
2023-04-28T22:00:41.239Z,59.98
2023-04-28T22:02:56.200Z,60.28
2023-04-28T22:05:09.674Z,60.58
2023-04-28T22:07:22.743Z,60.88
2023-04-28T22:09:35.350Z,61.23
2023-04-28T22:11:48.024Z,61.69
2023-04-28T22:14:00.802Z,61.52
2023-04-28T22:16:13.494Z,62.23
2023-04-28T22:18:26.329Z,62.51
2023-04-28T22:20:38.873Z,62.75
2023-04-28T22:22:51.439Z,62.84
2023-04-28T22:25:04.341Z,62.97
2023-04-28T22:27:16.909Z,62.92
2023-04-28T22:29:29.471Z,63.40
2023-04-28T22:31:42.133Z,63.34
2023-04-28T22:33:54.830Z,63.64
2023-04-28T22:36:07.484Z,63.68
2023-04-28T22:38:20.035Z,63.88
2023-04-28T22:40:33.028Z,63.79
2023-04-28T22:42:45.602Z,63.89
2023-04-28T22:44:58.130Z,64.02
2023-04-28T22:47:10.684Z,64.01
2023-04-28T22:49:25.905Z,64.09
2023-04-28T22:51:38.508Z,63.93
2023-04-28T22:53:51.030Z,64.14
2023-04-28T22:56:03.680Z,64.35
2023-04-28T22:58:16.206Z,64.41
2023-04-28T23:00:28.763Z,63.90
2023-04-28T23:02:42.411Z,63.85
2023-04-28T23:04:55.208Z,63.68
2023-04-28T23:07:08.374Z,63.37
2023-04-28T23:09:20.982Z,63.20
2023-04-28T23:11:33.499Z,62.76
2023-04-28T23:13:46.077Z,63.03
2023-04-28T23:16:00.383Z,62.59
2023-04-28T23:18:13.102Z,62.42
2023-04-28T23:20:25.844Z,62.22
2023-04-28T23:22:38.373Z,62.38
2023-04-28T23:24:51.580Z,61.98
2023-04-28T23:27:04.527Z,62.08
2023-04-28T23:29:17.295Z,61.99
2023-04-28T23:31:30.628Z,61.60
2023-04-28T23:33:43.295Z,61.40
2023-04-28T23:35:55.940Z,61.35
2023-04-28T23:38:08.615Z,61.72
2023-04-28T23:40:21.215Z,61.65
2023-04-28T23:42:33.769Z,61.41
2023-04-28T23:44:46.372Z,61.40
2023-04-28T23:46:58.894Z,61.14
2023-04-28T23:49:11.665Z,61.55
2023-04-28T23:51:24.211Z,61.37
2023-04-28T23:53:37.259Z,61.62
2023-04-28T23:55:50.318Z,61.35
2023-04-28T23:58:02.901Z,61.20
